Time;durP1;ratioP1;P1;durP2;ratioP2;P2;SDS_P1;SDS_P2;PMS_P1;PMS_P2;Temp;Humidity;BMP_temperature;BMP_pressure;BME280_temperature;BME280_humidity;BME280_pressure;Samples;Min_cycle;Max_cycle;Signal;HPM_P1;HPM_P2
2021/10/10 00:00:29;;;;;;;3.20;2.40;;;18.30;99.90;;;;;;5023123;28;20453;-41
2021/10/10 00:03:00;;;;;;;1.70;1.60;;;18.30;99.90;;;;;;5022482;28;20450;-41
2021/10/10 00:05:32;;;;;;;2.20;2.03;;;18.30;99.70;;;;;;5023256;28;20462;-43
2021/10/10 00:08:04;;;;;;;2.30;2.10;;;18.40;99.80;;;;;;5023732;28;20474;-41
2021/10/10 00:10:36;;;;;;;2.07;1.83;;;18.30;99.90;;;;;;5023274;28;20478;-41
2021/10/10 00:13:08;;;;;;;2.17;1.90;;;18.20;99.90;;;;;;5022209;28;20420;-41
2021/10/10 00:15:39;;;;;;;2.90;2.03;;;18.10;99.90;;;;;;5004058;28;20553;-41
2021/10/10 00:18:10;;;;;;;3.50;2.80;;;18.30;99.90;;;;;;5022747;28;20456;-41
2021/10/10 00:20:41;;;;;;;2.20;2.03;;;18.40;99.90;;;;;;5022653;28;20542;-41
2021/10/10 00:23:14;;;;;;;2.70;1.77;;;18.40;99.60;;;;;;5023430;28;20444;-41
2021/10/10 00:25:44;;;;;;;2.57;2.10;;;18.20;99.90;;;;;;5023385;28;20435;-41
2021/10/10 00:28:15;;;;;;;2.60;2.40;;;18.00;99.90;;;;;;5023524;28;20422;-41
2021/10/10 00:30:46;;;;;;;2.57;2.37;;;17.80;99.90;;;;;;5022428;28;20485;-41
2021/10/10 00:33:17;;;;;;;3.20;2.50;;;17.70;99.90;;;;;;5022261;28;20601;-41
2021/10/10 00:35:48;;;;;;;2.43;2.23;;;17.40;99.90;;;;;;5022057;28;20606;-41
2021/10/10 00:38:21;;;;;;;2.67;2.47;;;17.30;99.90;;;;;;5021113;28;20457;-41
2021/10/10 00:40:52;;;;;;;3.00;2.80;;;17.20;99.90;;;;;;5022906;28;20470;-42
2021/10/10 00:43:23;;;;;;;3.43;2.73;;;17.30;99.90;;;;;;5023029;28;20450;-41
2021/10/10 00:45:54;;;;;;;3.67;3.37;;;17.30;99.90;;;;;;5022187;28;20466;-42
2021/10/10 00:48:25;;;;;;;5.73;4.20;;;17.30;99.90;;;;;;5022319;28;20477;-42
2021/10/10 00:50:56;;;;;;;4.10;3.80;;;17.30;99.90;;;;;;5022284;28;20450;-41
2021/10/10 00:53:30;;;;;;;4.60;4.30;;;17.20;99.90;;;;;;5022653;28;20455;-41
2021/10/10 00:56:01;;;;;;;3.93;3.63;;;17.10;99.90;;;;;;5022717;28;20564;-40
2021/10/10 00:58:33;;;;;;;3.07;2.87;;;16.90;99.90;;;;;;5022345;28;20446;-41
2021/10/10 01:01:03;;;;;;;3.47;3.27;;;16.90;99.90;;;;;;5022033;28;20574;-41
2021/10/10 01:03:35;;;;;;;4.13;2.87;;;16.80;99.90;;;;;;5021481;28;20607;-40
2021/10/10 01:06:06;;;;;;;3.67;3.37;;;16.80;99.90;;;;;;5022242;28;20494;-41
2021/10/10 01:08:40;;;;;;;3.07;2.83;;;16.80;99.90;;;;;;5022103;28;20525;-40
2021/10/10 01:11:12;;;;;;;3.63;3.33;;;16.70;99.90;;;;;;5022673;28;20482;-41
2021/10/10 01:13:43;;;;;;;2.80;2.60;;;16.70;99.90;;;;;;5022157;28;20450;-41
2021/10/10 01:16:16;;;;;;;3.27;2.97;;;16.70;99.90;;;;;;5021773;28;20508;-40
2021/10/10 01:18:47;;;;;;;3.87;3.20;;;16.70;99.90;;;;;;5021487;28;20454;-41
2021/10/10 01:21:19;;;;;;;3.63;3.20;;;16.70;99.90;;;;;;5022449;28;20482;-42
2021/10/10 01:23:50;;;;;;;3.87;3.47;;;16.60;99.90;;;;;;5022411;28;20478;-41
2021/10/10 01:26:22;;;;;;;4.50;3.17;;;16.40;99.90;;;;;;5022449;28;20438;-41
2021/10/10 01:28:53;;;;;;;4.70;4.40;;;16.50;99.90;;;;;;5018497;28;20458;-41
2021/10/10 01:31:24;;;;;;;5.67;5.27;;;16.40;99.90;;;;;;5022301;28;20904;-42
2021/10/10 01:33:56;;;;;;;5.53;5.03;;;16.30;99.90;;;;;;5021398;28;20509;-41
2021/10/10 01:36:28;;;;;;;5.73;4.53;;;16.20;99.90;;;;;;5022527;28;20561;-42
2021/10/10 01:38:59;;;;;;;4.83;4.33;;;16.30;99.90;;;;;;5021896;28;20442;-41
2021/10/10 01:41:31;;;;;;;4.77;4.47;;;16.20;99.90;;;;;;5022638;28;20422;-42
2021/10/10 01:44:02;;;;;;;4.23;3.73;;;16.10;99.90;;;;;;5021881;28;20453;-40
2021/10/10 01:46:33;;;;;;;4.07;3.77;;;16.00;99.90;;;;;;5021581;28;20449;-41
2021/10/10 01:49:04;;;;;;;6.03;4.67;;;15.90;99.90;;;;;;5021481;28;20498;-41
2021/10/10 01:51:37;;;;;;;4.80;4.37;;;15.90;99.90;;;;;;5022271;28;20477;-41
2021/10/10 01:54:08;;;;;;;4.63;4.17;;;15.90;99.90;;;;;;5021718;28;20453;-41
2021/10/10 01:56:39;;;;;;;5.53;3.70;;;15.80;99.90;;;;;;5022180;28;20628;-41
2021/10/10 01:59:10;;;;;;;4.77;4.00;;;15.80;99.90;;;;;;5022136;28;20486;-41
2021/10/10 02:01:41;;;;;;;6.10;4.90;;;15.80;99.90;;;;;;5021097;28;20577;-40
2021/10/10 02:04:12;;;;;;;6.43;5.40;;;15.80;99.90;;;;;;5020560;28;20561;-41
2021/10/10 02:06:45;;;;;;;5.73;5.23;;;15.70;99.90;;;;;;5021729;28;20518;-40
2021/10/10 02:09:16;;;;;;;9.10;7.53;;;15.70;99.90;;;;;;5022092;28;20454;-41
2021/10/10 02:11:47;;;;;;;9.17;6.97;;;15.80;99.90;;;;;;5021955;28;20481;-41
2021/10/10 02:14:18;;;;;;;6.83;6.10;;;15.80;99.90;;;;;;5010823;28;20465;-41
2021/10/10 02:16:51;;;;;;;6.67;5.90;;;15.70;99.90;;;;;;5001792;28;20483;-41
2021/10/10 02:19:21;;;;;;;5.80;5.30;;;15.60;99.90;;;;;;5015261;28;20458;-41
2021/10/10 02:21:54;;;;;;;7.33;6.63;;;15.60;99.90;;;;;;5022045;28;20944;-41
2021/10/10 02:24:25;;;;;;;6.77;6.10;;;15.50;99.90;;;;;;5021495;28;20454;-41
2021/10/10 02:26:56;;;;;;;6.10;5.50;;;15.50;99.90;;;;;;5025429;28;20537;-41
2021/10/10 02:29:27;;;;;;;7.10;6.50;;;15.50;99.90;;;;;;5025341;28;20516;-41
2021/10/10 02:31:58;;;;;;;6.97;6.37;;;15.40;99.90;;;;;;5024359;28;20481;-41
2021/10/10 02:34:29;;;;;;;8.40;6.67;;;15.40;99.90;;;;;;5024190;28;20477;-41
2021/10/10 02:37:02;;;;;;;6.60;6.00;;;15.30;99.90;;;;;;5025191;28;20501;-41
2021/10/10 02:39:33;;;;;;;7.00;6.43;;;15.30;99.90;;;;;;5025000;28;20566;-41
2021/10/10 02:42:04;;;;;;;8.00;7.20;;;15.40;99.90;;;;;;5024952;28;20532;-41
2021/10/10 02:44:35;;;;;;;7.67;6.97;;;15.40;99.90;;;;;;5005184;28;20856;-41
2021/10/10 02:47:06;;;;;;;6.40;5.87;;;15.30;99.90;;;;;;5004655;28;20455;-41
2021/10/10 02:49:37;;;;;;;8.57;6.40;;;15.30;99.90;;;;;;5014453;28;20651;-41
2021/10/10 02:52:09;;;;;;;6.60;6.03;;;15.20;99.90;;;;;;5024417;28;20496;-41
2021/10/10 02:54:40;;;;;;;6.63;6.03;;;15.20;99.90;;;;;;5024779;28;20446;-41
2021/10/10 02:57:12;;;;;;;7.80;6.23;;;15.20;99.90;;;;;;5024408;28;20530;-41
2021/10/10 02:59:43;;;;;;;6.27;5.73;;;15.10;99.90;;;;;;5024048;28;20596;-41
2021/10/10 03:02:14;;;;;;;7.30;6.70;;;15.10;99.90;;;;;;5024589;28;20888;-40
2021/10/10 03:04:45;;;;;;;7.07;6.47;;;15.00;99.90;;;;;;5023603;28;20459;-41
2021/10/10 03:07:18;;;;;;;7.13;6.43;;;15.00;99.90;;;;;;5024697;28;20450;-41
2021/10/10 03:09:49;;;;;;;7.70;7.00;;;15.00;99.90;;;;;;5024777;28;20459;-40
2021/10/10 03:12:20;;;;;;;9.97;7.40;;;15.00;99.90;;;;;;5024191;28;20482;-41
2021/10/10 03:14:51;;;;;;;6.83;6.23;;;15.00;99.90;;;;;;5007726;28;20462;-40
2021/10/10 03:17:21;;;;;;;9.90;7.63;;;15.00;99.90;;;;;;5004662;28;20517;-41
2021/10/10 03:19:52;;;;;;;7.10;6.40;;;15.00;99.90;;;;;;5021756;28;20835;-41
2021/10/10 03:22:25;;;;;;;7.60;6.77;;;14.90;99.90;;;;;;5024505;28;20435;-41
2021/10/10 03:24:56;;;;;;;7.30;6.37;;;14.90;99.90;;;;;;5024249;28;20481;-40
2021/10/10 03:27:27;;;;;;;6.70;6.10;;;14.90;99.90;;;;;;5023267;28;20633;-41
2021/10/10 03:29:58;;;;;;;6.83;6.13;;;14.90;99.90;;;;;;5023837;28;20546;-41
2021/10/10 03:32:28;;;;;;;9.97;6.50;;;14.90;99.90;;;;;;5023924;28;20465;-41
2021/10/10 03:34:59;;;;;;;3.80;3.50;;;14.80;99.90;;;;;;5022883;28;20478;-41
2021/10/10 03:37:34;;;;;;;5.63;3.37;;;14.90;99.90;;;;;;5023969;28;20473;-41
2021/10/10 03:40:07;;;;;;;3.60;3.00;;;14.90;99.90;;;;;;5024220;28;20445;-40
2021/10/10 03:42:38;;;;;;;3.50;2.57;;;14.80;99.90;;;;;;5023710;28;20461;-40
2021/10/10 03:45:10;;;;;;;3.10;2.50;;;15.00;99.90;;;;;;5022815;28;20459;-41
2021/10/10 03:47:42;;;;;;;2.97;2.30;;;14.90;99.90;;;;;;5023593;28;20564;-41
2021/10/10 03:50:13;;;;;;;3.23;2.40;;;15.00;99.90;;;;;;5022990;28;20474;-40
2021/10/10 03:52:46;;;;;;;3.20;2.40;;;15.00;99.90;;;;;;5023764;28;20504;-41
2021/10/10 03:55:29;;;;;;;2.93;2.10;;;15.00;99.90;;;;;;5023458;28;20558;-40
2021/10/10 03:58:00;;;;;;;3.03;2.50;;;15.00;99.90;;;;;;5022448;28;20496;-41
2021/10/10 04:00:33;;;;;;;3.80;2.13;;;15.10;99.90;;;;;;5023094;28;20512;-41
2021/10/10 04:03:05;;;;;;;2.70;2.43;;;15.10;99.90;;;;;;5013109;28;20506;-40
2021/10/10 04:05:40;;;;;;;4.83;2.60;;;15.10;99.90;;;;;;5003476;28;20451;-40
2021/10/10 04:08:13;;;;;;;4.53;2.20;;;15.10;99.90;;;;;;5009025;28;20545;-40
2021/10/10 04:10:44;;;;;;;4.43;2.50;;;15.10;99.90;;;;;;5014201;28;20936;-41
2021/10/10 04:13:15;;;;;;;2.60;2.40;;;15.10;99.90;;;;;;5022439;28;20521;-40
2021/10/10 04:15:46;;;;;;;3.07;2.77;;;15.10;99.90;;;;;;5021090;28;20455;-41
2021/10/10 04:18:17;;;;;;;3.70;3.40;;;15.20;99.90;;;;;;5022972;28;20550;-40
2021/10/10 04:20:48;;;;;;;3.60;3.30;;;15.20;99.90;;;;;;5022221;28;20521;-41
2021/10/10 04:23:21;;;;;;;4.50;4.10;;;15.20;99.90;;;;;;5022372;28;20497;-40
2021/10/10 04:25:51;;;;;;;5.57;4.70;;;15.20;99.90;;;;;;5022779;28;20445;-41
2021/10/10 04:28:22;;;;;;;6.00;5.40;;;15.20;99.90;;;;;;5023010;28;20471;-41
2021/10/10 04:30:53;;;;;;;5.63;5.23;;;15.10;99.90;;;;;;5022534;28;20486;-41
2021/10/10 04:33:24;;;;;;;6.97;6.20;;;15.10;99.90;;;;;;5022330;28;20466;-41
2021/10/10 04:35:55;;;;;;;6.27;5.77;;;15.20;99.90;;;;;;5022098;28;20454;-41
2021/10/10 04:38:28;;;;;;;10.50;6.10;;;15.10;99.90;;;;;;5020791;28;20619;-41
2021/10/10 04:40:59;;;;;;;5.37;4.87;;;15.20;99.90;;;;;;5023220;28;20612;-40
2021/10/10 04:43:29;;;;;;;5.20;4.70;;;15.10;99.90;;;;;;5023446;28;20477;-41
2021/10/10 04:46:00;;;;;;;5.80;4.67;;;15.10;99.90;;;;;;5022814;28;20461;-41
2021/10/10 04:48:31;;;;;;;5.13;4.63;;;15.20;99.90;;;;;;5022061;28;20496;-41
2021/10/10 04:51:02;;;;;;;5.83;5.33;;;15.20;99.90;;;;;;5022823;28;20484;-41
2021/10/10 04:53:35;;;;;;;5.73;4.80;;;15.10;99.90;;;;;;5022203;28;20439;-41
2021/10/10 04:56:06;;;;;;;4.90;4.00;;;15.10;99.90;;;;;;5020345;28;20446;-41
2021/10/10 04:58:37;;;;;;;4.80;4.30;;;15.10;99.90;;;;;;5021842;28;20505;-41
2021/10/10 05:01:08;;;;;;;4.33;3.87;;;15.10;99.90;;;;;;5021555;28;20462;-41
2021/10/10 05:03:39;;;;;;;5.00;4.40;;;15.00;99.90;;;;;;5021951;28;20458;-40
2021/10/10 05:06:10;;;;;;;5.10;3.80;;;15.00;99.90;;;;;;5021426;28;21025;-41
2021/10/10 05:08:43;;;;;;;4.97;3.80;;;15.00;99.90;;;;;;5022066;28;20447;-41
2021/10/10 05:11:14;;;;;;;4.03;3.73;;;15.00;99.90;;;;;;5022992;28;20536;-40
2021/10/10 05:14:05;;;;;;;4.23;3.10;;;15.00;99.90;;;;;;5008947;28;20490;-41
2021/10/10 05:16:35;;;;;;;3.70;3.27;;;14.90;99.90;;;;;;5021934;28;20458;-41
2021/10/10 05:19:06;;;;;;;4.87;3.50;;;14.80;99.90;;;;;;5021505;28;20486;-41
2021/10/10 05:21:37;;;;;;;4.00;3.20;;;14.90;99.90;;;;;;5021998;28;20454;-40
2021/10/10 05:24:10;;;;;;;3.73;3.40;;;14.90;99.90;;;;;;5021041;28;20494;-41
2021/10/10 05:26:41;;;;;;;4.33;3.90;;;14.90;99.90;;;;;;5021936;28;20822;-41
2021/10/10 05:29:12;;;;;;;3.70;3.40;;;14.90;99.90;;;;;;5022213;28;20453;-41
2021/10/10 05:31:43;;;;;;;5.30;2.93;;;14.90;99.90;;;;;;5021976;28;20461;-41
2021/10/10 05:34:13;;;;;;;4.93;3.73;;;14.90;99.90;;;;;;5021350;28;20529;-41
2021/10/10 05:36:44;;;;;;;3.53;3.23;;;14.80;99.90;;;;;;5021380;28;20493;-41
2021/10/10 05:39:17;;;;;;;3.80;3.50;;;14.80;99.90;;;;;;5021485;28;20498;-41
2021/10/10 05:41:48;;;;;;;3.97;3.30;;;14.80;99.90;;;;;;5023026;28;20514;-41
2021/10/10 05:44:19;;;;;;;3.50;3.20;;;14.90;99.90;;;;;;5021650;28;20454;-40
2021/10/10 05:46:50;;;;;;;3.70;3.17;;;14.90;99.90;;;;;;5021343;28;20465;-40
2021/10/10 05:49:21;;;;;;;3.53;3.23;;;14.90;99.90;;;;;;5020871;28;20462;-41
2021/10/10 05:51:52;;;;;;;4.00;3.17;;;14.90;99.90;;;;;;5021274;28;20457;-40
2021/10/10 05:54:29;;;;;;;3.40;3.10;;;15.00;99.90;;;;;;5021275;28;20541;-41
2021/10/10 05:57:03;;;;;;;3.70;3.40;;;15.00;99.90;;;;;;5022040;28;20454;-41
2021/10/10 05:59:35;;;;;;;4.90;3.60;;;15.00;99.90;;;;;;5021568;28;20959;-40
2021/10/10 06:02:06;;;;;;;3.50;3.27;;;14.90;99.90;;;;;;5023781;28;20486;-40
2021/10/10 06:04:37;;;;;;;4.50;4.10;;;14.90;99.90;;;;;;5024840;28;20450;-40
2021/10/10 06:07:11;;;;;;;4.60;2.90;;;14.70;99.90;;;;;;5024149;28;20454;-41
2021/10/10 06:09:43;;;;;;;4.00;3.27;;;14.70;99.90;;;;;;5024905;28;20446;-40
2021/10/10 06:12:14;;;;;;;3.63;3.30;;;14.70;99.90;;;;;;5025943;28;20473;-41
2021/10/10 06:14:47;;;;;;;3.50;3.13;;;14.80;99.90;;;;;;5011199;28;20446;-41
2021/10/10 06:17:18;;;;;;;3.70;3.07;;;14.70;99.90;;;;;;5024667;28;20525;-40
2021/10/10 06:19:49;;;;;;;4.90;2.60;;;14.80;99.90;;;;;;5024392;28;20516;-41
2021/10/10 06:22:20;;;;;;;4.10;3.10;;;14.70;99.90;;;;;;5024589;28;20478;-41
2021/10/10 06:24:53;;;;;;;4.00;3.17;;;14.70;99.90;;;;;;5010121;28;20454;-40
2021/10/10 06:27:24;;;;;;;4.33;3.50;;;14.70;99.90;;;;;;5025602;28;20481;-40
2021/10/10 06:29:55;;;;;;;3.30;3.00;;;14.60;99.90;;;;;;5024681;28;20453;-41
2021/10/10 06:32:26;;;;;;;3.63;2.77;;;14.50;99.90;;;;;;5024444;28;20477;-40
2021/10/10 06:34:57;;;;;;;4.73;3.07;;;14.40;99.90;;;;;;5024510;28;20454;-41
2021/10/10 06:37:28;;;;;;;3.40;2.80;;;14.40;99.90;;;;;;5023947;28;20465;-40
2021/10/10 06:40:00;;;;;;;4.20;2.80;;;14.30;99.90;;;;;;5024689;28;20616;-41
2021/10/10 06:42:31;;;;;;;3.00;2.47;;;14.20;99.90;;;;;;5025185;28;20451;-41
2021/10/10 06:45:02;;;;;;;3.80;3.10;;;14.10;99.90;;;;;;5024398;28;20482;-40
2021/10/10 06:47:33;;;;;;;4.03;2.77;;;13.90;99.90;;;;;;5023561;28;20920;-41
2021/10/10 06:50:05;;;;;;;4.23;3.27;;;13.80;99.90;;;;;;5024164;28;20470;-41
2021/10/10 06:52:35;;;;;;;4.77;3.67;;;13.80;99.90;;;;;;5024511;28;20482;-41
2021/10/10 06:55:09;;;;;;;3.70;3.40;;;13.70;99.90;;;;;;5024616;28;20462;-40
2021/10/10 06:57:40;;;;;;;4.00;3.07;;;13.70;99.90;;;;;;5024254;28;20450;-40
2021/10/10 07:00:12;;;;;;;3.07;2.73;;;13.70;99.90;;;;;;5023997;28;20482;-41
2021/10/10 07:02:43;;;;;;;3.43;3.13;;;13.50;99.90;;;;;;5024227;28;20454;-41
2021/10/10 07:05:17;;;;;;;6.30;3.30;;;13.60;99.90;;;;;;5023583;28;20454;-41
2021/10/10 07:07:48;;;;;;;3.93;3.63;;;13.60;99.90;;;;;;5023487;28;20477;-40
2021/10/10 07:10:21;;;;;;;4.13;3.63;;;13.60;99.90;;;;;;5024271;28;20466;-41
2021/10/10 07:12:52;;;;;;;3.67;3.40;;;13.60;99.90;;;;;;5024463;28;20520;-41
2021/10/10 07:15:23;;;;;;;4.40;3.63;;;13.50;99.90;;;;;;5011807;28;20488;-41
2021/10/10 07:17:59;;;;;;;4.70;3.67;;;13.40;99.90;;;;;;5023355;28;20484;-41
2021/10/10 07:20:43;;;;;;;3.97;3.57;;;13.40;99.90;;;;;;5023528;28;20490;-41
2021/10/10 07:23:26;;;;;;;4.33;3.27;;;13.40;99.90;;;;;;5024104;28;20565;-41
2021/10/10 07:25:59;;;;;;;3.87;3.30;;;13.30;99.90;;;;;;5024170;28;20454;-40
2021/10/10 07:28:30;;;;;;;4.43;3.10;;;13.30;99.90;;;;;;5024075;28;20557;-40
2021/10/10 07:31:02;;;;;;;3.80;3.40;;;13.30;99.90;;;;;;5023044;28;20537;-41
2021/10/10 07:33:33;;;;;;;7.30;3.87;;;13.20;99.90;;;;;;5023511;28;20577;-41
2021/10/10 07:36:04;;;;;;;4.90;3.80;;;13.20;99.90;;;;;;5023402;28;20447;-41
2021/10/10 07:38:35;;;;;;;5.57;3.43;;;13.10;99.90;;;;;;5023352;28;20963;-40
2021/10/10 07:41:08;;;;;;;3.20;2.90;;;13.10;99.90;;;;;;5023390;28;20612;-41
2021/10/10 07:43:40;;;;;;;4.10;3.60;;;13.10;99.90;;;;;;5024209;28;20446;-41
2021/10/10 07:46:18;;;;;;;4.40;2.60;;;13.00;99.90;;;;;;5003866;28;20451;-41
2021/10/10 07:48:50;;;;;;;3.33;3.03;;;13.00;99.90;;;;;;5018633;28;20457;-41
2021/10/10 07:51:25;;;;;;;3.20;2.57;;;12.90;99.90;;;;;;5023123;28;20558;-41
2021/10/10 07:53:56;;;;;;;3.27;2.40;;;12.90;99.90;;;;;;5023858;28;20453;-40
2021/10/10 07:56:29;;;;;;;3.17;1.90;;;12.80;99.90;;;;;;5023277;28;20454;-41
2021/10/10 07:59:00;;;;;;;2.93;2.37;;;12.80;99.90;;;;;;5023018;28;20892;-41
2021/10/10 08:01:31;;;;;;;4.17;2.90;;;12.70;99.90;;;;;;5022731;28;20474;-40
2021/10/10 08:04:02;;;;;;;3.07;2.07;;;12.60;99.90;;;;;;5022527;28;20458;-40
2021/10/10 08:06:33;;;;;;;2.33;1.77;;;12.60;99.90;;;;;;5022098;28;20517;-41
2021/10/10 08:09:04;;;;;;;2.30;2.10;;;12.50;99.90;;;;;;5023028;28;20522;-40
2021/10/10 08:11:36;;;;;;;2.30;1.70;;;12.50;99.90;;;;;;5023050;28;20549;-40
2021/10/10 08:14:07;;;;;;;2.03;1.80;;;12.40;99.90;;;;;;5014237;28;20451;-41
2021/10/10 08:16:38;;;;;;;2.80;1.80;;;12.40;99.90;;;;;;5003462;28;20511;-41
2021/10/10 08:19:10;;;;;;;2.57;1.73;;;12.40;99.90;;;;;;5002675;28;20486;-40
2021/10/10 08:21:41;;;;;;;1.67;1.57;;;12.40;99.90;;;;;;5019636;28;20569;-41
2021/10/10 08:24:12;;;;;;;2.93;2.20;;;12.40;99.90;;;;;;5022572;28;20454;-40
2021/10/10 08:26:45;;;;;;;2.50;2.07;;;12.40;99.90;;;;;;5022311;28;20446;-41
2021/10/10 08:29:15;;;;;;;1.93;1.40;;;12.40;99.90;;;;;;5023179;28;20541;-41
2021/10/10 08:31:46;;;;;;;5.80;2.07;;;12.40;99.90;;;;;;5017952;28;20553;-41
2021/10/10 08:34:21;;;;;;;2.30;2.13;;;12.50;99.90;;;;;;5022371;28;20442;-40
2021/10/10 08:36:52;;;;;;;2.50;1.63;;;12.50;99.90;;;;;;5022784;28;20461;-41
2021/10/10 08:39:24;;;;;;;2.30;2.10;;;12.50;99.90;;;;;;5022438;28;20541;-41
2021/10/10 08:41:58;;;;;;;4.70;2.03;;;12.50;99.90;;;;;;5022438;28;20493;-41
2021/10/10 08:44:33;;;;;;;2.80;2.13;;;12.50;99.90;;;;;;5023095;28;20481;-41
2021/10/10 08:47:06;;;;;;;2.03;1.67;;;12.40;99.90;;;;;;5022220;28;20458;-41
2021/10/10 08:49:39;;;;;;;2.20;2.00;;;12.50;99.90;;;;;;5022106;28;20469;-41
2021/10/10 08:52:12;;;;;;;2.10;1.90;;;12.50;99.90;;;;;;5012505;28;20485;-41
2021/10/10 08:54:58;;;;;;;2.57;2.30;;;12.50;99.90;;;;;;5022605;28;20454;-41
2021/10/10 08:57:31;;;;;;;3.00;2.70;;;12.50;99.90;;;;;;5021834;28;20526;-41
2021/10/10 09:00:05;;;;;;;3.40;2.60;;;12.50;99.90;;;;;;5021800;28;20521;-41
2021/10/10 09:02:38;;;;;;;2.70;2.37;;;12.50;99.90;;;;;;5022560;28;20994;-40
2021/10/10 09:05:10;;;;;;;4.13;3.30;;;12.50;99.90;;;;;;5021606;28;20458;-41
2021/10/10 09:07:41;;;;;;;3.07;2.87;;;12.50;99.90;;;;;;5021660;28;20458;-41
2021/10/10 09:10:21;;;;;;;3.23;2.93;;;12.40;99.90;;;;;;5022415;28;20797;-41
2021/10/10 09:12:54;;;;;;;3.63;3.13;;;12.50;99.90;;;;;;5022182;28;20474;-40
2021/10/10 09:15:26;;;;;;;2.60;2.40;;;12.40;99.90;;;;;;5021693;28;20507;-41
2021/10/10 09:17:58;;;;;;;3.30;2.70;;;12.50;99.90;;;;;;5022008;28;20454;-41
2021/10/10 09:20:31;;;;;;;3.20;2.90;;;12.50;99.90;;;;;;5022046;28;20625;-41
2021/10/10 09:23:02;;;;;;;4.03;2.37;;;12.50;99.90;;;;;;5022554;28;20446;-41
2021/10/10 09:25:34;;;;;;;2.20;2.00;;;12.50;99.90;;;;;;5022244;28;20450;-41
2021/10/10 09:28:24;;;;;;;3.77;2.70;;;12.40;99.90;;;;;;5003216;28;20451;-41
2021/10/10 09:31:00;;;;;;;2.47;2.23;;;12.50;99.90;;;;;;5022134;28;20454;-41
2021/10/10 09:33:42;;;;;;;2.13;1.93;;;12.40;99.90;;;;;;5021589;28;20783;-41
2021/10/10 09:36:20;;;;;;;6.07;2.40;;;12.40;99.90;;;;;;5026242;28;20461;-41
2021/10/10 09:38:57;;;;;;;2.53;2.20;;;12.40;99.90;;;;;;5018914;28;20447;-41
2021/10/10 09:41:31;;;;;;;2.97;2.50;;;12.40;99.90;;;;;;5025973;28;20485;-41
2021/10/10 09:44:11;;;;;;;2.33;2.17;;;12.40;99.90;;;;;;5026018;28;20449;-40
2021/10/10 09:46:44;;;;;;;2.43;2.23;;;12.50;99.90;;;;;;5025670;28;20468;-41
2021/10/10 09:49:26;;;;;;;3.07;2.70;;;12.40;99.90;;;;;;5024917;28;20450;-41
2021/10/10 09:52:11;;;;;;;3.63;2.30;;;12.40;99.90;;;;;;5026030;28;20615;-40
2021/10/10 09:54:53;;;;;;;2.97;2.33;;;12.50;99.90;;;;;;5025937;28;20446;-41
2021/10/10 09:57:25;;;;;;;2.83;2.63;;;12.50;99.90;;;;;;5025650;28;20990;-41
2021/10/10 09:59:57;;;;;;;2.30;2.10;;;12.50;99.90;;;;;;5025034;28;20454;-41
2021/10/10 10:02:39;;;;;;;3.27;2.43;;;12.50;99.90;;;;;;5021070;28;20497;-41
2021/10/10 10:05:10;;;;;;;2.77;2.37;;;12.40;99.90;;;;;;5025397;28;20518;-41
2021/10/10 10:07:42;;;;;;;2.87;2.57;;;12.50;99.90;;;;;;5025412;28;20537;-41
2021/10/10 10:10:13;;;;;;;2.50;2.30;;;12.40;99.90;;;;;;5025304;28;20581;-41
2021/10/10 10:12:45;;;;;;;3.63;2.30;;;12.40;99.90;;;;;;5025875;28;20514;-41
2021/10/10 10:15:19;;;;;;;3.10;2.03;;;12.40;99.90;;;;;;5025238;28;20454;-40
2021/10/10 10:17:51;;;;;;;2.00;1.90;;;12.40;99.90;;;;;;5025138;28;20931;-41
2021/10/10 10:20:23;;;;;;;2.60;2.40;;;12.40;99.90;;;;;;5025040;28;20505;-41
2021/10/10 10:22:56;;;;;;;1.93;1.83;;;12.40;99.90;;;;;;5025122;28;20529;-40
2021/10/10 10:25:28;;;;;;;1.70;1.60;;;12.50;99.90;;;;;;5025150;28;20489;-41
2021/10/10 10:27:59;;;;;;;2.10;1.90;;;12.40;99.90;;;;;;5025314;28;20533;-41
2021/10/10 10:30:36;;;;;;;1.97;1.87;;;12.50;99.90;;;;;;5024947;28;20447;-41
2021/10/10 10:33:09;;;;;;;2.10;2.00;;;12.50;99.90;;;;;;5025544;28;20449;-41
2021/10/10 10:35:46;;;;;;;3.20;1.80;;;12.40;99.90;;;;;;5025023;28;20520;-40
2021/10/10 10:38:17;;;;;;;1.70;1.57;;;12.40;99.90;;;;;;5024521;28;20450;-40
2021/10/10 10:40:48;;;;;;;3.60;1.80;;;12.40;99.90;;;;;;5025247;28;20450;-40
2021/10/10 10:43:36;;;;;;;2.07;1.87;;;12.50;99.90;;;;;;5025307;28;20868;-41
2021/10/10 10:46:11;;;;;;;2.00;1.83;;;12.50;99.90;;;;;;5024369;28;20485;-40
2021/10/10 10:48:42;;;;;;;2.40;1.67;;;12.40;99.90;;;;;;5024327;28;20599;-40
2021/10/10 10:51:23;;;;;;;2.43;2.00;;;12.40;99.90;;;;;;5024889;28;20628;-40
2021/10/10 10:53:54;;;;;;;3.00;1.80;;;12.40;99.90;;;;;;5024804;28;20457;-40
2021/10/10 10:56:29;;;;;;;1.77;1.67;;;12.40;99.90;;;;;;5024774;28;20482;-40
2021/10/10 10:59:00;;;;;;;1.63;1.50;;;12.40;99.90;;;;;;5025141;28;20474;-40
2021/10/10 11:04:30;;;;;;;1.90;1.80;;;12.40;99.90;;;;;;5182647;27;20544;-34
2021/10/10 11:07:10;;;;;;;1.70;1.60;;;12.50;99.90;;;;;;5169879;27;20454;-34
2021/10/10 11:09:47;;;;;;;1.37;1.27;;;12.40;99.90;;;;;;5181694;27;20446;-34
2021/10/10 11:12:31;;;;;;;1.93;1.57;;;12.40;99.90;;;;;;5176663;27;20451;-34
2021/10/10 11:15:11;;;;;;;1.77;1.63;;;12.40;99.90;;;;;;5143986;27;20513;-34
2021/10/10 11:17:54;;;;;;;2.30;1.57;;;12.40;99.90;;;;;;5141063;27;20468;-34
2021/10/10 11:20:27;;;;;;;1.30;1.20;;;12.40;99.90;;;;;;5161858;27;20508;-34
2021/10/10 11:22:58;;;;;;;2.57;1.43;;;12.40;99.90;;;;;;5165030;27;20550;-32
2021/10/10 11:25:31;;;;;;;2.13;1.83;;;12.40;99.90;;;;;;5177962;27;20463;-32
2021/10/10 11:28:02;;;;;;;2.13;1.83;;;12.50;99.90;;;;;;5182761;27;20478;-32
2021/10/10 11:30:34;;;;;;;1.80;1.70;;;12.40;99.90;;;;;;5172244;27;20452;-34
2021/10/10 11:33:05;;;;;;;2.93;1.97;;;12.40;99.90;;;;;;5171331;27;21006;-32
2021/10/10 11:35:43;;;;;;;3.40;2.20;;;12.40;99.90;;;;;;5171631;27;20444;-33
2021/10/10 11:38:14;;;;;;;2.73;2.13;;;12.40;99.90;;;;;;5166125;27;20435;-35
2021/10/10 11:41:01;;;;;;;2.10;1.90;;;12.40;99.90;;;;;;5168621;27;20489;-35
2021/10/10 11:43:32;;;;;;;2.50;2.00;;;12.40;99.90;;;;;;5167600;27;20475;-35
2021/10/10 11:46:03;;;;;;;2.30;1.73;;;12.30;99.90;;;;;;5182290;27;20511;-35
2021/10/10 11:48:35;;;;;;;3.87;1.87;;;12.30;99.90;;;;;;5181853;27;20447;-32
2021/10/10 11:51:31;;;;;;;2.90;1.97;;;12.20;99.90;;;;;;5180346;27;20446;-33
2021/10/10 11:54:02;;;;;;;1.70;1.60;;;12.20;99.90;;;;;;5182170;27;20467;-33
2021/10/10 11:56:33;;;;;;;3.83;1.90;;;12.20;99.90;;;;;;5167760;27;20440;-32
2021/10/10 11:59:14;;;;;;;3.10;1.70;;;12.20;99.90;;;;;;5161316;27;20421;-33
2021/10/10 12:01:45;;;;;;;2.53;1.20;;;12.10;99.90;;;;;;5172471;27;20443;-33
2021/10/10 12:04:18;;;;;;;2.33;1.80;;;12.10;99.90;;;;;;5118900;27;20493;-32
2021/10/10 12:06:52;;;;;;;3.37;1.93;;;12.10;99.90;;;;;;5131171;28;20525;-32
2021/10/10 12:09:23;;;;;;;1.83;1.67;;;12.00;99.90;;;;;;5125451;28;20472;-33
2021/10/10 12:12:09;;;;;;;2.30;1.53;;;12.10;99.90;;;;;;5129540;28;20452;-33
2021/10/10 12:14:48;;;;;;;1.97;1.47;;;12.00;99.90;;;;;;5130761;27;20533;-33
2021/10/10 12:17:30;;;;;;;2.17;1.70;;;12.10;99.90;;;;;;5126562;27;20457;-33
2021/10/10 12:20:02;;;;;;;2.23;1.40;;;12.00;99.90;;;;;;5123078;28;20462;-33
2021/10/10 12:22:35;;;;;;;1.83;1.63;;;12.10;99.90;;;;;;5117288;28;20449;-33
2021/10/10 12:25:22;;;;;;;2.70;1.57;;;12.10;99.90;;;;;;5120843;28;20453;-33
2021/10/10 12:28:04;;;;;;;2.13;1.50;;;12.00;99.90;;;;;;5112610;28;20518;-33
2021/10/10 12:30:37;;;;;;;2.10;1.90;;;12.10;99.90;;;;;;5122199;28;20445;-36
2021/10/10 12:33:29;;;;;;;2.97;1.40;;;12.10;99.90;;;;;;5114619;28;21021;-33
2021/10/10 12:36:03;;;;;;;2.00;1.60;;;12.10;99.90;;;;;;5106565;28;20447;-33
2021/10/10 12:38:38;;;;;;;3.13;1.60;;;12.00;99.90;;;;;;5109684;28;20466;-33
2021/10/10 12:41:27;;;;;;;2.10;1.50;;;12.10;99.90;;;;;;5124777;27;21052;-33
2021/10/10 12:44:14;;;;;;;2.00;1.80;;;12.10;99.90;;;;;;5125778;28;20573;-33
2021/10/10 12:46:51;;;;;;;2.10;1.90;;;12.10;99.90;;;;;;5107458;28;20507;-33
2021/10/10 12:49:30;;;;;;;3.70;1.93;;;12.10;99.90;;;;;;5107887;28;20454;-32
2021/10/10 12:52:02;;;;;;;4.03;2.30;;;12.10;99.90;;;;;;5105269;28;20601;-32
2021/10/10 12:54:40;;;;;;;2.30;1.90;;;12.10;99.90;;;;;;5095193;28;20512;-32
2021/10/10 12:57:12;;;;;;;3.10;2.40;;;12.10;99.90;;;;;;5108318;28;20443;-32
2021/10/10 12:59:52;;;;;;;5.37;2.73;;;12.10;99.90;;;;;;5125527;28;20503;-33
2021/10/10 13:02:23;;;;;;;4.13;2.80;;;12.20;99.90;;;;;;5120597;27;20483;-33
2021/10/10 13:04:54;;;;;;;3.00;2.80;;;12.20;99.90;;;;;;5149126;27;20484;-32
2021/10/10 13:07:25;;;;;;;2.63;2.43;;;12.20;99.90;;;;;;5150013;27;20464;-33
2021/10/10 13:09:58;;;;;;;3.40;3.10;;;12.20;99.90;;;;;;5164452;27;20500;-33
2021/10/10 13:12:32;;;;;;;3.13;2.83;;;12.20;99.90;;;;;;5158893;27;20931;-32
2021/10/10 13:15:03;;;;;;;3.00;2.80;;;12.20;99.90;;;;;;5129901;27;20473;-32
2021/10/10 13:17:35;;;;;;;6.13;3.17;;;12.20;99.90;;;;;;5166218;27;20531;-32
2021/10/10 13:20:07;;;;;;;3.47;3.17;;;12.20;99.90;;;;;;5161947;27;20453;-33